sensor_id;sensor_type;location;lat;lon;timestamp;temperature;humidity
75517;DHT22;64097;52.548;13.406;2023-06-19T06:01:09;24.50;51.60
75517;DHT22;64097;52.548;13.406;2023-06-19T06:03:35;24.60;51.60
75517;DHT22;64097;52.548;13.406;2023-06-19T06:06:01;24.60;51.60
75517;DHT22;64097;52.548;13.406;2023-06-19T06:08:30;24.60;51.70
75517;DHT22;64097;52.548;13.406;2023-06-19T06:10:56;24.60;51.80
75517;DHT22;64097;52.548;13.406;2023-06-19T06:13:22;24.70;51.90
75517;DHT22;64097;52.548;13.406;2023-06-19T06:15:48;24.70;51.90
75517;DHT22;64097;52.548;13.406;2023-06-19T06:18:13;24.70;51.90
75517;DHT22;64097;52.548;13.406;2023-06-19T06:20:39;24.70;51.90
75517;DHT22;64097;52.548;13.406;2023-06-19T06:23:05;24.70;51.90
75517;DHT22;64097;52.548;13.406;2023-06-19T06:25:31;24.70;51.70
75517;DHT22;64097;52.548;13.406;2023-06-19T06:27:57;24.70;51.70
75517;DHT22;64097;52.548;13.406;2023-06-19T06:30:23;24.70;51.80
75517;DHT22;64097;52.548;13.406;2023-06-19T06:32:49;24.70;51.80
75517;DHT22;64097;52.548;13.406;2023-06-19T06:35:16;24.70;51.80
75517;DHT22;64097;52.548;13.406;2023-06-19T06:37:42;24.70;51.80
75517;DHT22;64097;52.548;13.406;2023-06-19T06:40:09;24.70;51.70
75517;DHT22;64097;52.548;13.406;2023-06-19T06:42:37;24.70;51.70
75517;DHT22;64097;52.548;13.406;2023-06-19T06:45:07;24.70;51.70
75517;DHT22;64097;52.548;13.406;2023-06-19T06:47:34;24.80;51.80
75517;DHT22;64097;52.548;13.406;2023-06-19T06:50:00;24.80;51.70
75517;DHT22;64097;52.548;13.406;2023-06-19T06:52:26;24.90;51.70
75517;DHT22;64097;52.548;13.406;2023-06-19T06:54:53;24.90;51.70
75517;DHT22;64097;52.548;13.406;2023-06-19T06:57:19;24.90;51.60
75517;DHT22;64097;52.548;13.406;2023-06-19T06:59:44;24.90;51.60
75517;DHT22;64097;52.548;13.406;2023-06-19T07:02:10;25.00;51.70
75517;DHT22;64097;52.548;13.406;2023-06-19T07:04:36;25.00;51.60
75517;DHT22;64097;52.548;13.406;2023-06-19T07:07:02;25.10;51.50
75517;DHT22;64097;52.548;13.406;2023-06-19T07:09:29;25.10;51.40
75517;DHT22;64097;52.548;13.406;2023-06-19T07:11:55;25.10;51.40
75517;DHT22;64097;52.548;13.406;2023-06-19T07:14:22;25.20;51.40
75517;DHT22;64097;52.548;13.406;2023-06-19T07:16:48;25.20;51.30
75517;DHT22;64097;52.548;13.406;2023-06-19T07:19:14;25.20;51.10
75517;DHT22;64097;52.548;13.406;2023-06-19T07:21:40;25.30;51.10
75517;DHT22;64097;52.548;13.406;2023-06-19T07:24:06;25.30;51.10
75517;DHT22;64097;52.548;13.406;2023-06-19T07:26:32;25.30;51.10
75517;DHT22;64097;52.548;13.406;2023-06-19T07:28:58;25.30;50.90
75517;DHT22;64097;52.548;13.406;2023-06-19T07:31:23;25.30;50.80
75517;DHT22;64097;52.548;13.406;2023-06-19T07:33:49;25.30;50.80
75517;DHT22;64097;52.548;13.406;2023-06-19T07:36:15;25.30;51.50
75517;DHT22;64097;52.548;13.406;2023-06-19T07:38:44;25.40;50.80
75517;DHT22;64097;52.548;13.406;2023-06-19T07:41:10;25.40;50.80
75517;DHT22;64097;52.548;13.406;2023-06-19T07:43:37;25.40;51.00
75517;DHT22;64097;52.548;13.406;2023-06-19T07:46:03;25.50;51.10
75517;DHT22;64097;52.548;13.406;2023-06-19T07:48:29;25.60;51.10
75517;DHT22;64097;52.548;13.406;2023-06-19T07:50:55;25.60;50.80
75517;DHT22;64097;52.548;13.406;2023-06-19T07:53:21;25.60;50.70
75517;DHT22;64097;52.548;13.406;2023-06-19T07:55:47;25.60;50.70
75517;DHT22;64097;52.548;13.406;2023-06-19T07:58:13;25.70;50.80
75517;DHT22;64097;52.548;13.406;2023-06-19T08:00:38;25.70;50.80
75517;DHT22;64097;52.548;13.406;2023-06-19T08:03:05;25.80;50.90
75517;DHT22;64097;52.548;13.406;2023-06-19T08:05:30;25.80;50.90
75517;DHT22;64097;52.548;13.406;2023-06-19T08:07:58;25.80;50.80
75517;DHT22;64097;52.548;13.406;2023-06-19T08:10:23;25.80;50.50
75517;DHT22;64097;52.548;13.406;2023-06-19T08:12:49;25.90;50.50
75517;DHT22;64097;52.548;13.406;2023-06-19T08:15:15;25.90;50.40
75517;DHT22;64097;52.548;13.406;2023-06-19T08:17:41;25.90;50.20
75517;DHT22;64097;52.548;13.406;2023-06-19T08:20:08;25.90;50.20
75517;DHT22;64097;52.548;13.406;2023-06-19T08:22:35;25.90;50.10
75517;DHT22;64097;52.548;13.406;2023-06-19T08:25:01;26.00;50.10
75517;DHT22;64097;52.548;13.406;2023-06-19T08:27:27;26.00;50.10
75517;DHT22;64097;52.548;13.406;2023-06-19T08:29:53;26.00;50.00
75517;DHT22;64097;52.548;13.406;2023-06-19T08:32:19;26.00;50.00
75517;DHT22;64097;52.548;13.406;2023-06-19T08:34:45;26.10;50.10
75517;DHT22;64097;52.548;13.406;2023-06-19T08:37:10;26.10;50.00
75517;DHT22;64097;52.548;13.406;2023-06-19T08:39:36;26.10;49.90
75517;DHT22;64097;52.548;13.406;2023-06-19T08:42:10;26.10;50.00
75517;DHT22;64097;52.548;13.406;2023-06-19T08:44:37;26.10;49.90
75517;DHT22;64097;52.548;13.406;2023-06-19T08:47:03;26.10;49.90
75517;DHT22;64097;52.548;13.406;2023-06-19T08:49:30;26.20;50.00
75517;DHT22;64097;52.548;13.406;2023-06-19T08:51:57;26.20;50.00
75517;DHT22;64097;52.548;13.406;2023-06-19T08:54:22;26.20;50.10
75517;DHT22;64097;52.548;13.406;2023-06-19T08:56:48;26.20;50.00
75517;DHT22;64097;52.548;13.406;2023-06-19T08:59:16;26.30;50.00
75517;DHT22;64097;52.548;13.406;2023-06-19T09:01:52;26.30;49.90
75517;DHT22;64097;52.548;13.406;2023-06-19T09:04:23;26.30;49.80
75517;DHT22;64097;52.548;13.406;2023-06-19T09:06:54;26.30;49.70
75517;DHT22;64097;52.548;13.406;2023-06-19T09:09:23;26.30;49.70
75517;DHT22;64097;52.548;13.406;2023-06-19T09:12:03;26.40;49.70
75517;DHT22;64097;52.548;13.406;2023-06-19T09:14:36;26.30;49.70
75517;DHT22;64097;52.548;13.406;2023-06-19T09:17:07;26.40;49.70
75517;DHT22;64097;52.548;13.406;2023-06-19T09:19:33;26.40;49.70
75517;DHT22;64097;52.548;13.406;2023-06-19T09:22:04;26.40;49.80
75517;DHT22;64097;52.548;13.406;2023-06-19T09:24:40;26.40;49.80
75517;DHT22;64097;52.548;13.406;2023-06-19T09:27:10;26.40;49.90
75517;DHT22;64097;52.548;13.406;2023-06-19T09:29:40;26.40;49.70
75517;DHT22;64097;52.548;13.406;2023-06-19T09:32:27;26.50;49.60
75517;DHT22;64097;52.548;13.406;2023-06-19T09:34:57;26.50;49.60
75517;DHT22;64097;52.548;13.406;2023-06-19T09:37:28;26.50;49.40
75517;DHT22;64097;52.548;13.406;2023-06-19T09:40:02;26.50;49.40
75517;DHT22;64097;52.548;13.406;2023-06-19T09:42:41;26.60;49.50
75517;DHT22;64097;52.548;13.406;2023-06-19T09:45:10;26.60;49.30
75517;DHT22;64097;52.548;13.406;2023-06-19T09:47:43;26.60;49.50
75517;DHT22;64097;52.548;13.406;2023-06-19T09:50:12;26.60;49.60
75517;DHT22;64097;52.548;13.406;2023-06-19T09:52:40;26.70;49.60
75517;DHT22;64097;52.548;13.406;2023-06-19T09:55:07;26.70;49.40
75517;DHT22;64097;52.548;13.406;2023-06-19T09:57:35;26.80;49.20
75517;DHT22;64097;52.548;13.406;2023-06-19T10:00:03;26.80;50.00
75517;DHT22;64097;52.548;13.406;2023-06-19T10:02:40;26.90;49.30
75517;DHT22;64097;52.548;13.406;2023-06-19T10:05:06;26.90;49.20
75517;DHT22;64097;52.548;13.406;2023-06-19T10:07:37;26.90;49.10
75517;DHT22;64097;52.548;13.406;2023-06-19T10:10:08;27.00;49.20
75517;DHT22;64097;52.548;13.406;2023-06-19T10:12:43;27.10;49.30
75517;DHT22;64097;52.548;13.406;2023-06-19T10:17:48;27.20;49.20
75517;DHT22;64097;52.548;13.406;2023-06-19T10:20:35;27.20;49.10
75517;DHT22;64097;52.548;13.406;2023-06-19T10:23:09;27.30;48.90
75517;DHT22;64097;52.548;13.406;2023-06-19T10:25:40;27.30;48.80
75517;DHT22;64097;52.548;13.406;2023-06-19T10:30:44;27.40;48.70
75517;DHT22;64097;52.548;13.406;2023-06-19T10:33:10;27.40;48.60
75517;DHT22;64097;52.548;13.406;2023-06-19T10:35:40;27.50;48.40
75517;DHT22;64097;52.548;13.406;2023-06-19T10:38:07;27.50;48.20
75517;DHT22;64097;52.548;13.406;2023-06-19T10:40:36;27.50;48.20
75517;DHT22;64097;52.548;13.406;2023-06-19T10:43:02;27.60;48.30
75517;DHT22;64097;52.548;13.406;2023-06-19T10:45:29;27.60;48.30
75517;DHT22;64097;52.548;13.406;2023-06-19T10:47:55;27.60;48.30
75517;DHT22;64097;52.548;13.406;2023-06-19T10:50:22;27.60;48.10
75517;DHT22;64097;52.548;13.406;2023-06-19T10:52:48;27.60;48.10
75517;DHT22;64097;52.548;13.406;2023-06-19T10:55:18;27.70;48.40
75517;DHT22;64097;52.548;13.406;2023-06-19T10:57:47;27.70;48.80
75517;DHT22;64097;52.548;13.406;2023-06-19T11:00:25;27.70;48.80
75517;DHT22;64097;52.548;13.406;2023-06-19T11:02:52;27.80;48.80
75517;DHT22;64097;52.548;13.406;2023-06-19T11:05:20;27.80;48.50
75517;DHT22;64097;52.548;13.406;2023-06-19T11:07:56;27.80;48.40
75517;DHT22;64097;52.548;13.406;2023-06-19T11:10:23;27.80;48.30
75517;DHT22;64097;52.548;13.406;2023-06-19T11:12:57;27.80;48.30
75517;DHT22;64097;52.548;13.406;2023-06-19T11:15:35;27.80;48.60
75517;DHT22;64097;52.548;13.406;2023-06-19T11:18:02;27.80;48.50
75517;DHT22;64097;52.548;13.406;2023-06-19T11:20:28;27.80;47.90
75517;DHT22;64097;52.548;13.406;2023-06-19T11:23:00;27.90;47.60
75517;DHT22;64097;52.548;13.406;2023-06-19T11:25:37;27.90;47.40
75517;DHT22;64097;52.548;13.406;2023-06-19T11:28:11;27.90;47.30
75517;DHT22;64097;52.548;13.406;2023-06-19T11:30:36;27.90;47.10
75517;DHT22;64097;52.548;13.406;2023-06-19T11:33:02;28.00;47.30
75517;DHT22;64097;52.548;13.406;2023-06-19T11:35:34;28.00;47.30
75517;DHT22;64097;52.548;13.406;2023-06-19T11:38:02;28.10;47.20
75517;DHT22;64097;52.548;13.406;2023-06-19T11:40:27;28.10;47.10
75517;DHT22;64097;52.548;13.406;2023-06-19T11:42:55;28.20;47.20
75517;DHT22;64097;52.548;13.406;2023-06-19T11:45:21;28.20;47.20
75517;DHT22;64097;52.548;13.406;2023-06-19T11:47:48;28.30;47.30
75517;DHT22;64097;52.548;13.406;2023-06-19T11:50:15;28.40;46.60
75517;DHT22;64097;52.548;13.406;2023-06-19T11:52:42;28.50;46.20
75517;DHT22;64097;52.548;13.406;2023-06-19T11:55:09;28.60;46.10
75517;DHT22;64097;52.548;13.406;2023-06-19T11:57:35;28.60;45.40
75517;DHT22;64097;52.548;13.406;2023-06-19T12:00:01;28.60;45.50
75517;DHT22;64097;52.548;13.406;2023-06-19T12:02:26;28.60;45.40
75517;DHT22;64097;52.548;13.406;2023-06-19T12:04:52;28.70;45.50
75517;DHT22;64097;52.548;13.406;2023-06-19T12:07:18;28.70;45.30
75517;DHT22;64097;52.548;13.406;2023-06-19T12:09:44;28.70;45.30
75517;DHT22;64097;52.548;13.406;2023-06-19T12:12:10;28.80;44.90
75517;DHT22;64097;52.548;13.406;2023-06-19T12:14:36;28.80;44.90
75517;DHT22;64097;52.548;13.406;2023-06-19T12:17:01;28.80;44.80
75517;DHT22;64097;52.548;13.406;2023-06-19T12:19:27;28.90;45.00
75517;DHT22;64097;52.548;13.406;2023-06-19T12:21:53;28.80;44.90
75517;DHT22;64097;52.548;13.406;2023-06-19T12:24:19;28.90;44.90
75517;DHT22;64097;52.548;13.406;2023-06-19T12:26:44;28.90;44.30
75517;DHT22;64097;52.548;13.406;2023-06-19T12:29:10;28.90;44.30
75517;DHT22;64097;52.548;13.406;2023-06-19T12:31:36;29.00;44.30
75517;DHT22;64097;52.548;13.406;2023-06-19T12:34:03;29.10;43.90
75517;DHT22;64097;52.548;13.406;2023-06-19T12:36:29;29.10;43.90
75517;DHT22;64097;52.548;13.406;2023-06-19T12:38:58;29.10;43.90
75517;DHT22;64097;52.548;13.406;2023-06-19T12:41:24;29.20;43.60
75517;DHT22;64097;52.548;13.406;2023-06-19T12:43:49;29.30;43.60
75517;DHT22;64097;52.548;13.406;2023-06-19T12:46:15;29.40;43.10
75517;DHT22;64097;52.548;13.406;2023-06-19T12:48:41;29.40;42.90
75517;DHT22;64097;52.548;13.406;2023-06-19T12:51:07;29.40;42.80
75517;DHT22;64097;52.548;13.406;2023-06-19T12:53:33;29.40;42.10
75517;DHT22;64097;52.548;13.406;2023-06-19T12:55:59;29.40;41.80
75517;DHT22;64097;52.548;13.406;2023-06-19T12:58:26;29.50;41.80
75517;DHT22;64097;52.548;13.406;2023-06-19T13:00:52;29.50;41.60
75517;DHT22;64097;52.548;13.406;2023-06-19T13:03:18;29.50;41.60
75517;DHT22;64097;52.548;13.406;2023-06-19T13:05:45;29.50;41.80
75517;DHT22;64097;52.548;13.406;2023-06-19T13:08:11;29.50;41.50
75517;DHT22;64097;52.548;13.406;2023-06-19T13:10:36;29.50;41.50
75517;DHT22;64097;52.548;13.406;2023-06-19T13:13:04;29.50;41.40
75517;DHT22;64097;52.548;13.406;2023-06-19T13:15:31;29.50;41.20
75517;DHT22;64097;52.548;13.406;2023-06-19T13:17:59;29.60;41.50
75517;DHT22;64097;52.548;13.406;2023-06-19T13:20:25;29.60;41.60
75517;DHT22;64097;52.548;13.406;2023-06-19T13:22:50;29.60;41.40
75517;DHT22;64097;52.548;13.406;2023-06-19T13:25:17;29.70;41.20
75517;DHT22;64097;52.548;13.406;2023-06-19T13:27:43;29.70;41.30
75517;DHT22;64097;52.548;13.406;2023-06-19T13:30:09;29.70;41.90
75517;DHT22;64097;52.548;13.406;2023-06-19T13:32:35;29.80;41.50
75517;DHT22;64097;52.548;13.406;2023-06-19T13:35:01;29.80;41.70
75517;DHT22;64097;52.548;13.406;2023-06-19T13:37:26;29.80;41.50
75517;DHT22;64097;52.548;13.406;2023-06-19T13:39:52;29.90;41.30
75517;DHT22;64097;52.548;13.406;2023-06-19T13:42:18;29.90;41.30
75517;DHT22;64097;52.548;13.406;2023-06-19T13:44:43;29.90;41.20
75517;DHT22;64097;52.548;13.406;2023-06-19T13:47:09;30.00;40.30
75517;DHT22;64097;52.548;13.406;2023-06-19T13:49:34;30.00;40.40
75517;DHT22;64097;52.548;13.406;2023-06-19T13:52:00;30.00;40.30
75517;DHT22;64097;52.548;13.406;2023-06-19T13:54:26;30.00;40.30
75517;DHT22;64097;52.548;13.406;2023-06-19T13:56:52;30.00;40.50
75517;DHT22;64097;52.548;13.406;2023-06-19T13:59:17;30.00;40.50
